aviador You're here:

SBKP Decoded Metar

CAMPINAS in BRAZIL
Report Time2018-05-25 11:00:00
UTC Time2018-05-25 11:08:12
Flight Rules vfr VFR
Wind090° at 09 kt
W.Decomp.*RWY 15: 6.9 kt HW 5.8 kt LCW
W.Rank090° ranks 12
Current wind is above 090° avg. (5.2)
Visibility9000 m
Phenomena:N/A
Clouds:N/A
Expected CloudBase > 1,200 ft AGL from Temp-Dew spread
CeilingNone
Temp16°C (ISA +5)
Dew Point13°C (83% RH)
AAT13.7°C
QNH1024 hPa
Density Alt2,631 ft
Elevation2,169 ft
Report Wrong Elevation
Raw Report
METAR SBKP 251100Z 09009KT 9000 NSC 16/13 Q1024=

Extra information for SBKP:More info

Metar Taf Metar & Taf Last 4 Metars F.Rules Stats Wind Profile Meteogram Temp Stats Airport Information Weather charts Add Link Nearby VenuesMetar ALERT Operation Metar Decoded Social comments